Time;durP1;ratioP1;P1;durP2;ratioP2;P2;SDS_P1;SDS_P2;PMS_P1;PMS_P2;Temp;Humidity;BMP_temperature;BMP_pressure;BME280_temperature;BME280_humidity;BME280_pressure;Samples;Min_cycle;Max_cycle;Signal;HPM_P1;HPM_P2
2021/12/06 00:01:37;;;;;;;43.95;20.58;;;;;;;5.08;100.00;100765.59;5016835;28;20114;-76
2021/12/06 00:04:10;;;;;;;41.80;20.02;;;;;;;5.06;100.00;100762.41;5023779;28;20433;-76
2021/12/06 00:06:40;;;;;;;34.10;18.60;;;;;;;4.99;100.00;100753.22;5027770;28;20095;-75
2021/12/06 00:09:09;;;;;;;38.33;17.90;;;;;;;5.00;100.00;100761.09;5026334;28;20156;-75
2021/12/06 00:11:36;;;;;;;34.22;18.48;;;;;;;5.00;100.00;100757.59;5019310;28;20082;-74
2021/12/06 00:14:03;;;;;;;38.17;18.50;;;;;;;5.00;100.00;100761.09;5025207;28;20136;-76
2021/12/06 00:16:30;;;;;;;33.30;18.40;;;;;;;4.96;100.00;100751.22;5023225;28;20513;-74
2021/12/06 00:18:58;;;;;;;35.13;17.33;;;;;;;4.92;100.00;100748.41;5037641;28;20045;-77
2021/12/06 00:21:25;;;;;;;29.90;17.35;;;;;;;4.90;100.00;100744.44;5029094;28;20081;-76
2021/12/06 00:23:52;;;;;;;28.85;15.40;;;;;;;4.85;100.00;100751.00;5032656;28;20057;-75
2021/12/06 00:26:19;;;;;;;32.30;16.42;;;;;;;4.81;100.00;100747.38;5026760;28;20056;-75
2021/12/06 00:28:48;;;;;;;37.75;18.95;;;;;;;4.75;100.00;100748.81;5024967;28;20569;-77
2021/12/06 00:31:19;;;;;;;45.78;21.67;;;;;;;4.70;100.00;100745.56;5030715;28;20136;-76
2021/12/06 00:33:52;;;;;;;44.60;19.50;;;;;;;4.70;100.00;100753.78;5021217;28;20065;-75
2021/12/06 00:36:27;;;;;;;53.75;25.00;;;;;;;4.64;100.00;100758.75;5028939;28;20128;-75
2021/12/06 00:38:54;;;;;;;46.83;23.77;;;;;;;4.59;100.00;100761.75;5019984;28;20055;-74
2021/12/06 00:41:20;;;;;;;50.72;23.60;;;;;;;4.51;100.00;100770.94;5019519;28;20060;-75
2021/12/06 00:43:47;;;;;;;49.15;24.65;;;;;;;4.43;100.00;100774.69;5019015;28;20049;-74
2021/12/06 00:46:14;;;;;;;46.40;22.48;;;;;;;4.36;100.00;100769.00;5029204;28;20053;-76
2021/12/06 00:48:40;;;;;;;44.65;22.88;;;;;;;4.32;100.00;100776.34;5027428;28;20084;-76
2021/12/06 00:51:07;;;;;;;38.03;20.77;;;;;;;4.28;100.00;100778.19;5017071;28;20065;-74
2021/12/06 00:53:33;;;;;;;41.85;20.23;;;;;;;4.20;100.00;100784.66;5026665;28;20050;-75
2021/12/06 00:56:00;;;;;;;37.63;19.48;;;;;;;4.16;100.00;100786.53;5021067;28;20046;-75
2021/12/06 00:58:27;;;;;;;35.55;19.13;;;;;;;4.13;100.00;100784.47;5027965;28;20413;-75
2021/12/06 01:00:54;;;;;;;35.38;18.48;;;;;;;4.09;100.00;100791.00;5021545;28;20088;-75
2021/12/06 01:03:29;;;;;;;33.55;18.65;;;;;;;4.03;100.00;100792.41;5023226;28;20053;-75
2021/12/06 01:05:57;;;;;;;29.42;16.33;;;;;;;3.99;100.00;100797.00;5030024;28;20520;-74
2021/12/06 01:08:24;;;;;;;32.40;16.13;;;;;;;3.93;100.00;100801.94;5045444;28;20091;-75
2021/12/06 01:10:52;;;;;;;30.45;17.17;;;;;;;3.87;100.00;100803.34;5046386;28;20074;-74
2021/12/06 01:13:19;;;;;;;27.25;16.52;;;;;;;3.83;100.00;100807.94;5027710;28;20050;-73
2021/12/06 01:15:46;;;;;;;26.58;16.25;;;;;;;3.74;100.00;100807.28;5029661;28;20093;-74
2021/12/06 01:18:16;;;;;;;28.80;15.85;;;;;;;3.67;100.00;100815.28;5024118;28;20050;-75
2021/12/06 01:20:51;;;;;;;32.20;17.42;;;;;;;3.58;100.00;100824.81;5028611;28;20077;-74
2021/12/06 01:23:23;;;;;;;26.80;16.23;;;;;;;3.55;100.00;100828.22;5023909;28;20058;-74
2021/12/06 01:26:11;;;;;;;28.10;14.93;;;;;;;3.49;100.00;100837.81;5028902;28;20128;-74
2021/12/06 01:29:05;;;;;;;29.55;16.08;;;;;;;3.47;100.00;100840.13;5022609;28;20077;-73
2021/12/06 01:39:41;;;;;;;30.40;16.83;;;;;;;3.28;100.00;100848.13;5030357;28;20137;-75
2021/12/06 01:42:08;;;;;;;27.75;16.55;;;;;;;3.21;100.00;100853.38;5017975;28;20050;-76
2021/12/06 01:44:39;;;;;;;27.90;15.70;;;;;;;3.18;100.00;100857.63;5022592;28;20057;-74
2021/12/06 01:47:29;;;;;;;28.23;16.30;;;;;;;3.15;100.00;100855.56;5029158;28;20096;-76
2021/12/06 01:50:06;;;;;;;27.77;15.40;;;;;;;3.10;100.00;100871.41;5030923;28;20049;-75
2021/12/06 01:52:40;;;;;;;27.92;15.80;;;;;;;3.06;100.00;100862.28;5026733;28;20068;-75
2021/12/06 01:55:10;;;;;;;25.88;15.18;;;;;;;3.05;100.00;100877.91;5029619;28;20065;-72
2021/12/06 01:57:37;;;;;;;30.48;15.45;;;;;;;2.99;100.00;100873.00;5027293;28;20048;-77
2021/12/06 02:00:19;;;;;;;27.20;14.63;;;;;;;2.89;100.00;100870.72;5025987;28;20901;-74
2021/12/06 02:02:46;;;;;;;28.40;16.30;;;;;;;2.84;100.00;100879.97;5028022;28;20083;-75
2021/12/06 02:05:13;;;;;;;25.25;15.75;;;;;;;2.78;100.00;100872.31;5031826;28;20743;-74
2021/12/06 02:07:39;;;;;;;32.60;18.70;;;;;;;2.87;100.00;100892.16;5027660;28;20413;-76
2021/12/06 02:10:08;;;;;;;32.78;17.52;;;;;;;2.83;100.00;100891.25;5026228;28;20096;-77
2021/12/06 02:12:35;;;;;;;27.42;17.70;;;;;;;2.85;100.00;100897.13;5028371;28;20458;-76
2021/12/06 02:15:08;;;;;;;34.17;17.65;;;;;;;2.86;100.00;100901.50;5023578;28;20211;-77
2021/12/06 02:17:39;;;;;;;29.95;17.75;;;;;;;2.82;100.00;100889.63;5031201;28;20140;-75
2021/12/06 02:20:16;;;;;;;28.67;16.73;;;;;;;2.70;100.00;100876.75;5030221;28;20489;-75
2021/12/06 02:22:45;;;;;;;32.42;18.60;;;;;;;2.68;100.00;100877.13;5027653;28;20049;-73
2021/12/06 02:25:16;;;;;;;28.40;17.70;;;;;;;2.66;100.00;100886.78;5035254;28;20139;-75
2021/12/06 02:27:44;;;;;;;31.58;18.98;;;;;;;2.66;100.00;100882.13;5029720;28;20045;-74
2021/12/06 02:30:12;;;;;;;31.58;16.08;;;;;;;2.67;100.00;100882.91;5018459;28;20081;-74
2021/12/06 02:32:39;;;;;;;34.78;18.88;;;;;;;2.63;100.00;100881.97;5025840;28;20085;-75
2021/12/06 02:35:12;;;;;;;29.13;16.85;;;;;;;2.62;100.00;100892.13;5032273;28;20064;-74
2021/12/06 02:37:39;;;;;;;29.60;17.35;;;;;;;2.51;100.00;100898.38;5029554;28;20613;-75
2021/12/06 02:40:10;;;;;;;33.10;19.73;;;;;;;2.49;100.00;100901.44;5027249;28;20517;-73
2021/12/06 02:42:37;;;;;;;29.23;18.00;;;;;;;2.50;100.00;100896.78;5029500;28;20095;-74
2021/12/06 02:45:06;;;;;;;32.38;18.60;;;;;;;2.48;100.00;100907.25;5026389;28;20136;-75
2021/12/06 02:47:33;;;;;;;34.40;20.33;;;;;;;2.44;100.00;100904.38;5025179;28;20128;-74
2021/12/06 02:50:06;;;;;;;33.20;19.20;;;;;;;2.46;100.00;100901.31;5020939;28;20418;-75
2021/12/06 02:52:33;;;;;;;38.70;20.30;;;;;;;2.46;100.00;100899.38;5025899;28;20059;-76
2021/12/06 02:55:08;;;;;;;32.25;19.02;;;;;;;2.43;100.00;100902.78;5030137;28;20049;-74
2021/12/06 02:57:37;;;;;;;31.77;17.27;;;;;;;2.30;100.00;100892.97;5028093;28;20192;-74
2021/12/06 03:00:10;;;;;;;34.78;18.70;;;;;;;2.24;100.00;100899.81;5028229;28;20135;-75
2021/12/06 03:02:36;;;;;;;32.35;19.38;;;;;;;2.26;100.00;100908.44;5026250;28;20049;-76
2021/12/06 03:05:04;;;;;;;31.33;19.27;;;;;;;2.25;100.00;100909.56;5044586;28;20132;-75
2021/12/06 03:07:36;;;;;;;29.42;17.52;;;;;;;2.21;100.00;100921.50;5039605;28;20127;-73
2021/12/06 03:10:05;;;;;;;33.38;18.25;;;;;;;2.15;100.00;100920.13;5029818;28;20572;-75
2021/12/06 03:12:32;;;;;;;31.30;18.52;;;;;;;2.10;100.00;100915.66;5038968;28;20084;-74
2021/12/06 03:15:00;;;;;;;33.05;19.42;;;;;;;2.12;100.00;100928.97;5046525;28;20056;-75
2021/12/06 03:17:29;;;;;;;34.95;20.05;;;;;;;2.12;100.00;100931.69;5039161;28;20060;-74
2021/12/06 03:19:57;;;;;;;30.98;19.08;;;;;;;2.11;100.00;100944.56;5030691;28;20115;-74
2021/12/06 03:22:25;;;;;;;32.92;19.88;;;;;;;2.02;100.00;100938.38;5029342;28;20076;-75
2021/12/06 03:24:52;;;;;;;32.30;19.15;;;;;;;2.04;100.00;100946.22;5030167;28;20057;-76
2021/12/06 03:27:19;;;;;;;35.35;19.92;;;;;;;2.05;100.00;100943.16;5029715;28;20145;-77
2021/12/06 03:29:46;;;;;;;31.13;19.20;;;;;;;2.05;100.00;100943.16;5033201;28;20049;-73
2021/12/06 03:32:13;;;;;;;32.28;19.42;;;;;;;2.01;100.00;100941.44;5042653;28;20045;-75
2021/12/06 03:34:40;;;;;;;30.77;17.88;;;;;;;2.00;100.00;100942.56;5029434;28;20095;-78
2021/12/06 03:37:08;;;;;;;31.23;18.60;;;;;;;1.88;100.00;100942.50;5040428;28;20080;-74
2021/12/06 03:39:42;;;;;;;32.25;18.38;;;;;;;1.85;100.00;100948.63;5031958;28;20157;-75
2021/12/06 03:42:12;;;;;;;31.00;18.08;;;;;;;1.88;100.00;100942.50;5027705;28;20072;-74
2021/12/06 03:44:39;;;;;;;31.65;18.85;;;;;;;1.88;100.00;100943.31;5039773;28;20522;-76
2021/12/06 03:47:19;;;;;;;31.05;18.27;;;;;;;1.87;100.00;100940.91;5049074;28;20501;-75
2021/12/06 03:49:45;;;;;;;32.50;18.80;;;;;;;1.90;100.00;100945.72;5048216;28;20045;-78
2021/12/06 03:52:13;;;;;;;32.47;18.23;;;;;;;1.86;100.00;100944.78;5033733;28;20049;-75
2021/12/06 03:54:43;;;;;;;33.00;18.58;;;;;;;1.87;100.00;100946.38;5049386;28;20406;-74
2021/12/06 03:57:10;;;;;;;29.95;17.65;;;;;;;1.82;100.00;100946.59;5034214;28;20125;-74
2021/12/06 03:59:36;;;;;;;34.17;20.30;;;;;;;1.80;100.00;100946.13;5028813;28;20573;-76
2021/12/06 04:02:03;;;;;;;32.03;19.30;;;;;;;1.75;100.00;100946.31;5031588;28;20136;-75
2021/12/06 04:04:30;;;;;;;33.65;19.80;;;;;;;1.75;100.00;100963.47;5047936;28;20056;-75
2021/12/06 04:06:57;;;;;;;31.50;18.20;;;;;;;1.70;100.00;100963.69;5049132;28;20061;-75
2021/12/06 04:09:23;;;;;;;29.73;18.45;;;;;;;1.63;100.00;100974.34;5049535;28;20059;-74
2021/12/06 04:11:51;;;;;;;33.40;18.90;;;;;;;1.60;100.00;100969.53;5033395;28;20505;-77
2021/12/06 04:14:17;;;;;;;34.92;18.83;;;;;;;1.55;100.00;100968.94;5017887;28;20132;-75
2021/12/06 04:16:44;;;;;;;34.30;20.58;;;;;;;1.56;100.00;100967.78;5031120;28;20124;-78
2021/12/06 04:19:11;;;;;;;32.50;19.13;;;;;;;1.52;100.00;100962.19;5048810;28;20147;-77
2021/12/06 04:21:39;;;;;;;31.75;18.85;;;;;;;1.53;100.00;100965.72;5030742;28;20171;-75
2021/12/06 04:24:06;;;;;;;31.00;18.55;;;;;;;1.49;100.00;100975.72;5037361;28;20047;-75
2021/12/06 04:26:33;;;;;;;31.63;18.88;;;;;;;1.46;100.00;100973.63;5045602;28;20053;-75
2021/12/06 04:29:01;;;;;;;31.67;18.58;;;;;;;1.46;100.00;100979.09;5049006;28;20136;-75
2021/12/06 04:31:31;;;;;;;34.15;20.65;;;;;;;1.45;100.00;100975.56;5041516;28;20041;-75
2021/12/06 04:33:58;;;;;;;32.22;19.20;;;;;;;1.47;100.00;100978.75;5040978;28;20060;-75
2021/12/06 04:36:36;;;;;;;32.88;19.50;;;;;;;1.41;100.00;100976.53;5048352;28;20528;-76
2021/12/06 04:39:07;;;;;;;34.38;20.42;;;;;;;1.44;100.00;100981.34;5034395;28;20057;-74
2021/12/06 04:41:34;;;;;;;31.45;18.42;;;;;;;1.36;100.00;100979.47;5025253;28;20565;-75
2021/12/06 04:44:00;;;;;;;35.10;18.52;;;;;;;1.31;100.00;100987.81;5027036;28;20045;-75
2021/12/06 04:46:27;;;;;;;32.10;19.15;;;;;;;1.31;100.00;100987.81;5032270;28;20160;-74
2021/12/06 04:48:54;;;;;;;34.75;20.70;;;;;;;1.32;100.00;100994.88;5028447;28;20525;-75
2021/12/06 04:51:21;;;;;;;31.83;19.90;;;;;;;1.31;100.00;101004.19;5035986;28;20063;-74
2021/12/06 04:53:49;;;;;;;34.53;19.80;;;;;;;1.30;100.00;101003.41;5044813;28;20132;-76
2021/12/06 04:56:27;;;;;;;35.53;19.63;;;;;;;1.30;100.00;101013.50;5038879;28;20125;-74
2021/12/06 04:59:14;;;;;;;32.83;20.70;;;;;;;1.30;100.00;101021.66;5028775;28;20096;-74
2021/12/06 05:01:41;;;;;;;31.00;20.45;;;;;;;1.27;100.00;101014.13;5027783;28;20143;-76
2021/12/06 05:04:31;;;;;;;33.10;18.92;;;;;;;1.22;100.00;101022.53;5028697;28;20136;-74
2021/12/06 05:07:13;;;;;;;32.45;19.45;;;;;;;1.17;100.00;101028.94;5027781;28;20096;-74
2021/12/06 05:09:41;;;;;;;38.05;21.48;;;;;;;1.22;100.00;101027.97;5038550;28;20160;-76
2021/12/06 05:12:12;;;;;;;36.92;22.55;;;;;;;1.22;100.00;101026.03;5027444;28;20088;-75
2021/12/06 05:14:39;;;;;;;36.13;21.95;;;;;;;1.26;100.00;101023.44;5027410;28;20088;-74
2021/12/06 05:17:05;;;;;;;34.20;18.73;;;;;;;1.20;100.00;101032.94;5028227;28;20569;-76
2021/12/06 05:19:32;;;;;;;33.05;18.08;;;;;;;1.11;100.00;101037.63;5028584;28;20128;-74
2021/12/06 05:22:04;;;;;;;32.33;18.13;;;;;;;1.05;100.00;101042.44;5027271;28;20080;-76
2021/12/06 05:24:31;;;;;;;38.15;19.60;;;;;;;1.06;100.00;101056.88;5041912;28;20132;-75
2021/12/06 05:26:59;;;;;;;33.83;19.27;;;;;;;1.01;100.00;101057.06;5048526;28;20055;-75
2021/12/06 05:29:29;;;;;;;34.80;19.08;;;;;;;0.96;100.00;101058.03;5042769;28;20053;-75
2021/12/06 05:31:58;;;;;;;38.60;20.08;;;;;;;0.97;100.00;101062.34;5017418;28;20050;-75
2021/12/06 05:34:32;;;;;;;33.55;20.27;;;;;;;0.97;100.00;101070.53;5025003;28;20477;-76
2021/12/06 05:37:00;;;;;;;36.65;19.85;;;;;;;1.00;100.00;101067.16;5048226;28;20085;-75
2021/12/06 05:39:30;;;;;;;33.33;19.15;;;;;;;0.99;100.00;101068.28;5030002;28;20562;-74
2021/12/06 05:42:05;;;;;;;34.47;20.08;;;;;;;0.87;100.00;101057.25;5028228;28;20049;-74
2021/12/06 05:44:33;;;;;;;33.20;19.70;;;;;;;0.88;100.00;101061.56;5030710;28;20077;-76
2021/12/06 05:46:59;;;;;;;32.80;19.17;;;;;;;0.84;100.00;101062.56;5028374;28;20514;-77
2021/12/06 05:49:27;;;;;;;35.03;20.55;;;;;;;0.86;100.00;101063.84;5028657;28;20051;-77
2021/12/06 05:51:55;;;;;;;37.10;22.35;;;;;;;0.88;100.00;101067.00;5031334;28;20057;-75
2021/12/06 05:54:22;;;;;;;35.30;20.27;;;;;;;0.87;100.00;101072.81;5029285;28;20045;-76
2021/12/06 05:56:49;;;;;;;36.58;20.05;;;;;;;0.89;100.00;101074.09;5030466;28;20779;-76
2021/12/06 05:59:16;;;;;;;32.25;20.10;;;;;;;0.92;100.00;101065.25;5031611;28;20056;-74
2021/12/06 06:01:45;;;;;;;37.17;21.67;;;;;;;1.00;100.00;101080.78;5032813;28;20049;-75
2021/12/06 06:04:12;;;;;;;34.92;21.85;;;;;;;1.02;100.00;101075.81;5029952;28;20052;-76
2021/12/06 06:06:39;;;;;;;36.25;22.08;;;;;;;1.06;100.00;101074.03;5031887;28;20144;-76
2021/12/06 06:09:07;;;;;;;38.20;20.90;;;;;;;1.09;100.00;101086.22;5031252;28;20096;-76
2021/12/06 06:11:34;;;;;;;36.85;21.95;;;;;;;1.09;100.00;101088.94;5030998;28;20784;-75
2021/12/06 06:14:03;;;;;;;37.60;22.20;;;;;;;1.04;100.00;101084.44;5030405;28;20081;-75
2021/12/06 06:16:35;;;;;;;38.17;23.00;;;;;;;1.04;100.00;101080.94;5031096;28;20132;-75
2021/12/06 06:19:03;;;;;;;46.47;23.95;;;;;;;1.14;100.00;101092.28;5030476;28;20048;-75
2021/12/06 06:21:30;;;;;;;57.97;28.65;;;;;;;1.25;100.00;101090.00;5028947;28;20144;-75
2021/12/06 06:23:57;;;;;;;42.97;24.55;;;;;;;1.33;100.00;101089.16;5029052;28;20077;-77
2021/12/06 06:26:23;;;;;;;47.00;27.30;;;;;;;1.44;100.00;101093.13;5031292;28;20053;-75
2021/12/06 06:28:50;;;;;;;47.55;26.60;;;;;;;1.51;100.00;101090.69;5038618;28;20406;-76
2021/12/06 06:31:16;;;;;;;46.97;27.45;;;;;;;1.56;100.00;101099.50;5037464;28;20321;-74
2021/12/06 06:33:43;;;;;;;50.88;27.40;;;;;;;1.65;100.00;101085.84;5031277;28;20129;-75
2021/12/06 06:36:11;;;;;;;49.97;28.05;;;;;;;1.70;100.00;101091.09;5042578;28;20080;-77
2021/12/06 06:38:38;;;;;;;44.38;24.50;;;;;;;1.74;100.00;101097.47;5030841;28;20049;-74
2021/12/06 06:41:05;;;;;;;49.75;26.98;;;;;;;1.80;100.00;101107.09;5030319;28;20570;-76
2021/12/06 06:43:32;;;;;;;46.55;24.27;;;;;;;1.84;100.00;101110.75;5023847;28;20050;-76
2021/12/06 06:45:59;;;;;;;44.25;22.65;;;;;;;1.86;100.00;101116.69;5031532;28;20052;-75
2021/12/06 06:48:26;;;;;;;42.25;21.98;;;;;;;1.86;100.00;101116.69;5044579;28;20046;-74
2021/12/06 06:50:53;;;;;;;47.05;23.33;;;;;;;1.87;100.00;101118.28;5037477;28;20057;-76
2021/12/06 06:53:19;;;;;;;54.20;22.60;;;;;;;1.90;100.00;101129.34;5030210;28;20136;-77
2021/12/06 06:55:46;;;;;;;69.38;26.10;;;;;;;1.92;100.00;101124.34;5030206;28;20121;-77
2021/12/06 06:58:14;;;;;;;63.45;24.10;;;;;;;2.00;100.00;101126.22;5030668;28;20053;-78
2021/12/06 07:00:41;;;;;;;65.13;26.50;;;;;;;2.03;100.00;101131.00;5027550;28;20048;-77
2021/12/06 07:03:09;;;;;;;75.97;26.15;;;;;;;2.05;100.00;101123.31;5037185;28;20077;-77
2021/12/06 07:05:37;;;;;;;108.10;29.77;;;;;;;2.08;100.00;101116.38;5030085;28;20060;-77
2021/12/06 07:08:04;;;;;;;74.15;26.13;;;;;;;2.12;100.00;101112.66;5021296;28;20092;-78
2021/12/06 07:10:31;;;;;;;87.10;28.58;;;;;;;2.20;100.00;101114.53;5034640;28;20124;-78
2021/12/06 07:13:03;;;;;;;83.97;25.25;;;;;;;2.22;100.00;101103.28;5041681;28;20128;-75
2021/12/06 07:15:33;;;;;;;114.20;28.58;;;;;;;2.24;100.00;101104.56;5032304;28;20079;-77
2021/12/06 07:18:01;;;;;;;141.80;34.00;;;;;;;2.29;100.00;101111.72;5037183;28;20068;-80
2021/12/06 07:20:30;;;;;;;109.10;28.48;;;;;;;2.28;100.00;101100.03;5031703;28;20131;-77
2021/12/06 07:22:56;;;;;;;111.30;30.52;;;;;;;2.29;100.00;101106.28;5029009;28;20085;-76
2021/12/06 07:25:25;;;;;;;105.18;30.40;;;;;;;2.28;100.00;101110.16;5030765;28;20506;-78
2021/12/06 07:27:53;;;;;;;112.45;29.52;;;;;;;2.33;100.00;101118.16;5034046;28;20140;-77
2021/12/06 07:30:20;;;;;;;117.38;32.88;;;;;;;2.36;100.00;101117.47;5035808;28;20107;-77
2021/12/06 07:32:47;;;;;;;108.07;30.05;;;;;;;2.38;100.00;101121.47;5041881;28;20045;-79
2021/12/06 07:35:15;;;;;;;149.35;30.63;;;;;;;2.36;100.00;101117.47;5039438;28;20497;-75
2021/12/06 07:37:43;;;;;;;171.50;32.65;;;;;;;2.45;100.00;101124.47;5048047;28;20067;-76
2021/12/06 07:40:12;;;;;;;125.00;30.83;;;;;;;2.50;100.00;101128.94;5026333;28;20080;-76
2021/12/06 07:42:39;;;;;;;75.60;22.00;;;;;;;2.52;100.00;101138.41;5030686;28;20135;-77
2021/12/06 07:45:09;;;;;;;86.07;25.55;;;;;;;2.51;100.00;101136.00;5027144;28;20136;-76
2021/12/06 07:47:37;;;;;;;104.70;28.42;;;;;;;2.49;100.00;101135.53;5032787;28;20151;-75
2021/12/06 07:50:07;;;;;;;97.72;25.40;;;;;;;2.48;100.00;101129.28;5043868;28;20540;-76
2021/12/06 07:52:34;;;;;;;90.40;24.75;;;;;;;2.48;100.00;101131.19;5029585;28;20046;-76
2021/12/06 07:55:01;;;;;;;148.70;29.20;;;;;;;2.45;100.00;101123.66;5030463;28;20069;-78
2021/12/06 07:57:28;;;;;;;130.95;28.98;;;;;;;2.38;100.00;101121.47;5029745;28;20104;-79
2021/12/06 07:59:56;;;;;;;67.95;24.60;;;;;;;2.43;100.00;101123.22;5029639;28;20582;-77
2021/12/06 08:02:23;;;;;;;89.28;24.25;;;;;;;2.48;100.00;101120.28;5040908;28;20081;-77
2021/12/06 08:05:00;;;;;;;56.97;22.00;;;;;;;2.49;100.00;101121.88;5030224;28;20121;-77
2021/12/06 08:07:27;;;;;;;69.28;21.40;;;;;;;2.51;100.00;101120.44;5030321;28;20148;-77
2021/12/06 08:09:53;;;;;;;89.97;26.85;;;;;;;2.51;100.00;101125.88;5035265;28;20488;-76
2021/12/06 08:12:20;;;;;;;51.38;17.83;;;;;;;2.52;100.00;101126.66;5032120;28;20517;-77
2021/12/06 08:14:47;;;;;;;43.70;17.50;;;;;;;2.47;100.00;101124.16;5029016;28;20088;-75
2021/12/06 08:17:15;;;;;;;45.92;19.17;;;;;;;2.45;100.00;101124.47;5034921;28;20045;-77
2021/12/06 08:19:42;;;;;;;47.83;20.50;;;;;;;2.43;100.00;101123.22;5038131;28;20061;-75
2021/12/06 08:22:08;;;;;;;48.70;21.60;;;;;;;2.44;100.00;101130.28;5028880;28;20048;-76
2021/12/06 08:24:35;;;;;;;60.05;21.65;;;;;;;2.38;100.00;101120.69;5032719;28;20148;-75
2021/12/06 08:27:01;;;;;;;71.30;21.35;;;;;;;2.40;100.00;101126.63;5030377;28;20140;-77
2021/12/06 08:29:28;;;;;;;54.50;21.40;;;;;;;2.46;100.00;101130.72;5029684;28;20140;-77
2021/12/06 08:31:55;;;;;;;75.45;24.88;;;;;;;2.48;100.00;101125.75;5023402;28;20049;-77
2021/12/06 08:34:21;;;;;;;57.13;21.23;;;;;;;2.50;100.00;101124.25;5029145;28;20131;-76
2021/12/06 08:36:48;;;;;;;57.30;22.55;;;;;;;2.53;100.00;101122.78;5038085;28;20091;-77
2021/12/06 08:39:14;;;;;;;50.38;17.52;;;;;;;2.51;100.00;101125.06;5035123;28;20054;-77
2021/12/06 08:41:41;;;;;;;50.47;20.33;;;;;;;2.52;100.00;101127.47;5028061;28;20103;-77
2021/12/06 08:44:08;;;;;;;106.78;27.75;;;;;;;2.52;100.00;101122.00;5030813;28;20085;-76
2021/12/06 08:46:38;;;;;;;62.72;21.90;;;;;;;2.54;100.00;101133.38;5047135;28;20083;-76
2021/12/06 08:49:08;;;;;;;70.18;22.77;;;;;;;2.52;100.00;101137.59;5028439;28;20394;-75
2021/12/06 08:51:46;;;;;;;64.70;23.83;;;;;;;2.49;100.00;101140.97;5027002;28;20049;-75
2021/12/06 08:54:16;;;;;;;82.38;24.90;;;;;;;2.52;100.00;101140.31;5030130;28;20081;-69
2021/12/06 08:56:43;;;;;;;112.10;31.65;;;;;;;2.56;100.00;101135.78;5030607;28;20127;-76
2021/12/06 08:59:10;;;;;;;67.20;25.40;;;;;;;2.56;100.00;101146.72;5028064;28;20128;-77
2021/12/06 09:01:37;;;;;;;102.07;28.63;;;;;;;2.54;100.00;101149.00;5038692;28;20057;-75
2021/12/06 09:04:26;;;;;;;125.53;29.38;;;;;;;2.55;100.00;101148.66;5028705;28;20057;-75
2021/12/06 09:06:55;;;;;;;134.50;30.33;;;;;;;2.57;100.00;101151.06;5027959;28;20049;-75
2021/12/06 09:09:21;;;;;;;116.70;29.08;;;;;;;2.59;100.00;101148.78;5028312;28;20053;-75
2021/12/06 09:11:49;;;;;;;97.18;28.55;;;;;;;2.61;100.00;101152.00;5026662;28;20042;-75
2021/12/06 09:14:17;;;;;;;82.28;25.27;;;;;;;2.62;100.00;101148.94;5016237;28;20453;-75
2021/12/06 09:16:44;;;;;;;69.93;27.85;;;;;;;2.65;100.00;101151.00;5031659;28;20078;-77
2021/12/06 09:19:13;;;;;;;102.00;30.63;;;;;;;2.64;100.00;101143.13;5028614;28;20109;-76
2021/12/06 09:21:43;;;;;;;84.72;28.48;;;;;;;2.67;100.00;101140.53;5042588;28;20155;-75
2021/12/06 09:24:15;;;;;;;96.90;30.75;;;;;;;2.68;100.00;101141.31;5029309;28;20045;-76
2021/12/06 09:26:43;;;;;;;89.97;28.30;;;;;;;2.69;100.00;101143.72;5051498;28;20576;-77
2021/12/06 09:29:10;;;;;;;169.82;33.13;;;;;;;2.68;100.00;101136.66;5043142;28;20133;-76
2021/12/06 09:31:36;;;;;;;162.70;35.38;;;;;;;2.76;100.00;101143.19;5032421;28;20061;-76
2021/12/06 09:34:04;;;;;;;110.72;32.33;;;;;;;2.74;100.00;101142.72;5032718;28;20497;-75
2021/12/06 09:36:33;;;;;;;104.05;32.10;;;;;;;2.74;100.00;101138.03;5035904;28;20072;-75
2021/12/06 09:39:01;;;;;;;161.93;36.90;;;;;;;2.76;100.00;101137.72;5048538;28;20576;-75
2021/12/06 09:41:29;;;;;;;103.18;32.85;;;;;;;2.77;100.00;101136.59;5028263;28;20046;-76
2021/12/06 09:43:59;;;;;;;120.30;30.95;;;;;;;2.70;100.00;101130.84;5030047;28;20151;-73
2021/12/06 09:46:28;;;;;;;154.38;37.70;;;;;;;2.74;100.00;101129.06;5030691;28;20084;-75
2021/12/06 09:48:55;;;;;;;137.27;28.08;;;;;;;2.63;100.00;101125.13;5030009;28;20045;-76
2021/12/06 09:51:26;;;;;;;123.00;26.75;;;;;;;2.55;100.00;101131.47;5030971;28;20394;-76
2021/12/06 09:53:57;;;;;;;131.00;30.70;;;;;;;2.51;100.00;101127.81;5032095;28;20156;-76
2021/12/06 09:56:28;;;;;;;141.40;27.00;;;;;;;2.38;100.00;101132.41;5032572;28;20077;-75
2021/12/06 09:58:57;;;;;;;138.07;29.17;;;;;;;2.31;100.00;101134.88;5036045;28;20049;-77
2021/12/06 10:01:28;;;;;;;142.27;28.05;;;;;;;2.26;100.00;101140.50;5050411;28;20180;-76
2021/12/06 10:03:58;;;;;;;113.47;26.02;;;;;;;2.25;100.00;101136.19;5051850;28;20063;-74
2021/12/06 10:06:27;;;;;;;138.50;23.42;;;;;;;2.16;100.00;101140.91;5048848;28;20136;-75
2021/12/06 10:08:55;;;;;;;220.20;31.85;;;;;;;2.20;100.00;101141.81;5030984;28;20046;-75
2021/12/06 10:11:24;;;;;;;159.45;32.35;;;;;;;2.25;100.00;101144.38;5030905;28;20092;-76
2021/12/06 10:13:53;;;;;;;172.68;34.40;;;;;;;2.36;100.00;101152.97;5031312;28;20144;-75
2021/12/06 10:16:23;;;;;;;103.80;29.63;;;;;;;2.43;100.00;101145.06;5039708;28;20049;-75
2021/12/06 10:18:52;;;;;;;92.35;28.23;;;;;;;2.51;100.00;101136.00;5032894;28;20045;-74
2021/12/06 10:21:19;;;;;;;90.00;28.40;;;;;;;2.64;100.00;101140.41;5032356;28;20518;-75
2021/12/06 10:23:46;;;;;;;66.88;25.90;;;;;;;2.72;100.00;101136.78;5037166;28;20136;-76
2021/12/06 10:26:17;;;;;;;72.18;23.75;;;;;;;2.74;100.00;101135.31;5032806;28;20045;-75
2021/12/06 10:28:44;;;;;;;84.93;29.13;;;;;;;2.80;100.00;101138.63;5031668;28;20076;-75
2021/12/06 10:31:13;;;;;;;112.22;27.52;;;;;;;2.85;100.00;101140.38;5037659;28;20131;-75
2021/12/06 10:33:46;;;;;;;69.32;24.85;;;;;;;2.85;100.00;101121.22;5031976;28;20080;-74
2021/12/06 10:36:15;;;;;;;73.65;24.95;;;;;;;2.93;100.00;101134.03;5040850;28;20132;-75
2021/12/06 10:38:47;;;;;;;92.03;24.83;;;;;;;2.95;100.00;101135.28;5048597;28;20127;-75
2021/12/06 10:41:16;;;;;;;75.10;27.08;;;;;;;2.96;100.00;101125.94;5033712;28;20045;-75
2021/12/06 10:44:00;;;;;;;65.55;26.02;;;;;;;3.01;100.00;101133.97;5026513;28;20056;-75
2021/12/06 10:46:27;;;;;;;84.75;25.10;;;;;;;3.05;100.00;101126.69;5038896;28;20076;-75
2021/12/06 10:48:57;;;;;;;65.50;26.13;;;;;;;3.10;100.00;101120.97;5030563;28;20486;-75
2021/12/06 10:51:25;;;;;;;58.65;25.02;;;;;;;3.17;100.00;101125.91;5039730;28;20918;-75
2021/12/06 10:54:20;;;;;;;55.15;22.80;;;;;;;3.22;100.00;101112.81;5050741;28;20141;-74
2021/12/06 10:56:51;;;;;;;54.87;24.47;;;;;;;3.29;100.00;101112.25;5029948;28;20053;-75
2021/12/06 10:59:25;;;;;;;50.45;22.17;;;;;;;3.33;100.00;101107.69;5029908;28;20187;-74
2021/12/06 11:01:56;;;;;;;55.17;25.17;;;;;;;3.32;100.00;101098.72;5033995;28;20137;-75
2021/12/06 11:04:27;;;;;;;45.17;20.60;;;;;;;3.34;100.00;101098.38;5025520;28;20494;-75
2021/12/06 11:07:04;;;;;;;43.92;19.95;;;;;;;3.38;100.00;101091.91;5026465;28;20053;-75
2021/12/06 11:09:33;;;;;;;47.17;21.50;;;;;;;3.38;100.00;101083.69;5016986;28;20049;-75
2021/12/06 11:12:02;;;;;;;54.33;23.50;;;;;;;3.49;100.00;101092.22;5012444;28;20200;-75
2021/12/06 11:14:37;;;;;;;49.72;23.13;;;;;;;3.51;100.00;101092.69;5026877;28;20092;-74
2021/12/06 11:17:11;;;;;;;49.55;23.77;;;;;;;3.55;100.00;101083.47;5028799;28;20060;-76
2021/12/06 11:19:38;;;;;;;62.55;25.73;;;;;;;3.68;100.00;101079.56;5033322;28;20533;-75
2021/12/06 11:22:08;;;;;;;77.03;26.85;;;;;;;3.74;100.00;101074.69;5016193;28;20056;-75
2021/12/06 11:24:48;;;;;;;53.25;25.38;;;;;;;3.85;100.00;101070.34;5044297;28;20151;-76